createdAt,value
2023-04-27T00:01:37.590Z,99023.16
2023-04-27T00:04:04.666Z,99030.97
2023-04-27T00:06:32.783Z,99032.84
2023-04-27T00:08:59.758Z,99027.78
2023-04-27T00:11:26.590Z,99032.13
2023-04-27T00:13:53.382Z,99033.97
2023-04-27T00:16:20.196Z,99033.03
2023-04-27T00:18:47.090Z,99009.69
2023-04-27T00:21:13.892Z,99017.19
2023-04-27T00:23:40.666Z,99022.34
2023-04-27T00:26:07.479Z,99018.22
2023-04-27T00:28:34.325Z,99019.84
2023-04-27T00:31:03.475Z,99018.06
2023-04-27T00:33:30.399Z,99017.31
2023-04-27T00:36:01.599Z,99019.88
2023-04-27T00:38:29.518Z,99011.50
2023-04-27T00:41:07.215Z,99028.66
2023-04-27T00:43:43.680Z,99021.94
2023-04-27T00:46:13.178Z,99003.34
2023-04-27T00:48:41.428Z,99013.53
2023-04-27T00:51:08.330Z,99015.38
2023-04-27T00:53:36.171Z,99007.66
2023-04-27T00:56:06.934Z,99008.59
2023-04-27T00:58:33.914Z,99000.13
2023-04-27T01:01:01.224Z,98993.41
2023-04-27T01:03:28.174Z,99008.94
2023-04-27T01:05:56.720Z,99010.63
2023-04-27T01:08:23.557Z,99010.75
2023-04-27T01:10:50.639Z,99009.94
2023-04-27T01:13:17.535Z,99005.66
2023-04-27T01:15:44.386Z,99004.91
2023-04-27T01:18:11.260Z,99002.38
2023-04-27T01:20:38.487Z,99004.91
2023-04-27T01:23:05.643Z,99010.09
2023-04-27T01:25:32.470Z,99009.25
2023-04-27T01:27:59.237Z,99011.91
2023-04-27T01:30:28.410Z,99017.09
2023-04-27T01:32:55.864Z,99012.81
2023-04-27T01:35:22.697Z,99016.31
2023-04-27T01:37:49.532Z,99017.19
2023-04-27T01:40:16.332Z,98999.72
2023-04-27T01:42:43.129Z,99017.34
2023-04-27T01:45:11.290Z,99019.13
2023-04-27T01:47:38.140Z,99006.28
2023-04-27T01:50:05.545Z,99008.81
2023-04-27T01:52:32.545Z,99021.00
2023-04-27T01:54:59.313Z,99009.97
2023-04-27T01:57:26.655Z,99005.81
2023-04-27T01:59:53.428Z,99010.22
2023-04-27T02:02:20.233Z,99020.44
2023-04-27T02:04:47.156Z,99022.38
2023-04-27T02:07:14.087Z,99028.41
2023-04-27T02:09:40.867Z,99023.25
2023-04-27T02:12:07.752Z,99014.84
2023-04-27T02:14:34.520Z,99021.56
2023-04-27T02:17:01.315Z,98993.16
2023-04-27T02:19:28.066Z,99026.03
2023-04-27T02:21:54.922Z,99034.13
2023-04-27T02:24:21.672Z,99035.00
2023-04-27T02:26:48.566Z,99033.38
2023-04-27T02:29:15.580Z,99041.13
2023-04-27T02:31:42.881Z,99033.66
2023-04-27T02:34:09.633Z,99045.47
2023-04-27T02:36:36.594Z,99037.09
2023-04-27T02:39:03.608Z,99045.66
2023-04-27T02:41:33.274Z,99055.94
2023-04-27T02:44:00.129Z,99045.88
2023-04-27T02:46:27.434Z,99044.97
2023-04-27T02:48:55.542Z,99045.19
2023-04-27T02:51:22.464Z,99041.94
2023-04-27T02:53:49.249Z,99053.78
2023-04-27T02:56:16.552Z,99057.19
2023-04-27T02:58:44.767Z,99026.81
2023-04-27T03:01:17.273Z,99059.03
2023-04-27T03:03:49.975Z,99025.41
2023-04-27T03:06:16.927Z,99053.97
2023-04-27T03:08:43.790Z,99060.00
2023-04-27T03:11:12.396Z,99056.84
2023-04-27T03:13:42.068Z,99045.84
2023-04-27T03:16:11.924Z,99059.41
2023-04-27T03:18:40.421Z,99063.69
2023-04-27T03:21:09.506Z,99060.13
2023-04-27T03:23:36.564Z,99059.34
2023-04-27T03:26:11.790Z,99062.78
2023-04-27T03:28:39.035Z,99045.72
2023-04-27T03:31:10.988Z,99058.66
2023-04-27T03:33:38.563Z,99061.22
2023-04-27T03:36:06.829Z,99057.88
2023-04-27T03:38:34.793Z,99054.38
2023-04-27T03:41:01.786Z,99049.47
2023-04-27T03:43:28.592Z,99051.03
2023-04-27T03:45:55.440Z,99057.88
2023-04-27T03:48:22.432Z,99051.84
2023-04-27T03:50:49.537Z,99048.31
2023-04-27T03:53:16.324Z,99056.91
2023-04-27T03:55:44.462Z,99056.06
2023-04-27T03:58:12.058Z,99056.19
2023-04-27T04:00:39.048Z,99055.41
2023-04-27T04:03:07.113Z,99064.47
2023-04-27T04:05:34.204Z,99057.63
2023-04-27T04:08:01.139Z,99061.09
2023-04-27T04:10:27.930Z,99060.31
2023-04-27T04:12:54.743Z,99069.78
2023-04-27T04:15:21.528Z,99054.50
2023-04-27T04:17:49.275Z,99066.41
2023-04-27T04:20:16.690Z,99072.44
2023-04-27T04:22:44.140Z,99069.00
2023-04-27T04:25:11.399Z,99068.06
2023-04-27T04:27:38.283Z,99073.31
2023-04-27T04:30:06.883Z,99073.25
2023-04-27T04:32:34.117Z,99074.16
2023-04-27T04:35:01.503Z,99073.31
2023-04-27T04:37:28.399Z,99077.66
2023-04-27T04:39:55.159Z,99071.72
2023-04-27T04:42:22.112Z,99079.41
2023-04-27T04:44:48.894Z,99081.91
2023-04-27T04:47:15.970Z,99084.50
2023-04-27T04:49:42.727Z,99086.25
2023-04-27T04:52:09.651Z,99086.19
2023-04-27T04:54:36.728Z,99091.34
2023-04-27T04:57:03.587Z,99078.63
2023-04-27T04:59:34.039Z,99082.69
2023-04-27T05:02:01.070Z,99086.06
2023-04-27T05:04:29.210Z,99083.47
2023-04-27T05:06:56.224Z,99087.81
2023-04-27T05:09:23.167Z,99085.28
2023-04-27T05:11:49.990Z,99093.75
2023-04-27T05:14:16.758Z,99090.31
2023-04-27T05:16:43.776Z,99092.91
2023-04-27T05:19:10.742Z,99086.81
2023-04-27T05:21:37.515Z,99089.41
2023-04-27T05:24:04.305Z,99083.34
2023-04-27T05:26:31.148Z,99091.94
2023-04-27T05:28:57.892Z,99087.59
2023-04-27T05:31:24.754Z,99085.72
2023-04-27T05:33:51.562Z,99096.91
2023-04-27T05:36:18.335Z,99082.41
2023-04-27T05:38:45.282Z,99092.59
2023-04-27T05:41:12.145Z,99100.22
2023-04-27T05:43:38.989Z,99093.31
2023-04-27T05:46:05.986Z,99100.00
2023-04-27T05:48:32.886Z,99087.28
2023-04-27T05:51:03.636Z,99099.88
2023-04-27T05:53:33.030Z,99096.38
2023-04-27T05:56:01.031Z,99101.63
2023-04-27T05:58:28.080Z,99106.66
2023-04-27T06:00:55.061Z,99105.81
2023-04-27T06:03:22.056Z,99097.34
2023-04-27T06:05:58.655Z,99115.97
2023-04-27T06:08:26.950Z,99114.03
2023-04-27T06:10:54.498Z,99115.47
2023-04-27T06:13:21.656Z,99117.97
2023-04-27T06:15:48.578Z,99118.91
2023-04-27T06:18:15.482Z,99098.59
2023-04-27T06:20:42.960Z,99118.66
2023-04-27T06:23:09.791Z,99125.22
2023-04-27T06:25:38.794Z,99124.25
2023-04-27T06:28:06.293Z,99122.13
2023-04-27T06:30:33.083Z,99139.28
2023-04-27T06:32:59.886Z,99123.81
2023-04-27T06:35:26.712Z,99136.34
2023-04-27T06:37:53.494Z,99125.84
2023-04-27T06:40:20.666Z,99125.72
2023-04-27T06:42:47.432Z,99128.97
2023-04-27T06:45:14.220Z,99127.97
2023-04-27T06:47:41.231Z,99130.44
2023-04-27T06:50:08.598Z,99129.44
2023-04-27T06:52:35.366Z,99121.81
2023-04-27T06:55:02.178Z,99133.66
2023-04-27T06:57:29.038Z,99133.53
2023-04-27T06:59:55.820Z,99131.63
2023-04-27T07:02:25.524Z,99138.41
2023-04-27T07:04:52.756Z,99134.84
2023-04-27T07:07:19.576Z,99143.47
2023-04-27T07:09:46.521Z,99138.97
2023-04-27T07:12:13.296Z,99136.44
2023-04-27T07:14:40.090Z,99140.81
2023-04-27T07:17:06.980Z,99142.34
2023-04-27T07:19:33.732Z,99138.84
2023-04-27T07:22:00.530Z,99135.34
2023-04-27T07:24:27.351Z,99137.03
2023-04-27T07:26:54.220Z,99133.53
2023-04-27T07:29:27.161Z,99123.25
2023-04-27T07:31:55.793Z,99131.72
2023-04-27T07:34:23.211Z,99116.31
2023-04-27T07:36:49.990Z,99123.94
2023-04-27T07:39:16.774Z,99125.47
2023-04-27T07:41:43.651Z,99116.03
2023-04-27T07:44:12.195Z,99113.50
2023-04-27T07:46:39.163Z,99117.78
2023-04-27T07:49:05.991Z,99115.00
2023-04-27T07:51:34.473Z,99124.28
2023-04-27T07:54:02.490Z,99123.50
2023-04-27T07:56:29.398Z,99113.28
2023-04-27T07:58:56.213Z,99115.81
2023-04-27T08:01:23.126Z,99120.78
2023-04-27T08:03:50.195Z,99112.41
2023-04-27T08:06:19.291Z,99113.81
2023-04-27T08:08:46.600Z,99124.81
2023-04-27T08:11:13.573Z,99124.97
2023-04-27T08:13:40.440Z,99115.31
2023-04-27T08:16:07.516Z,99119.47
2023-04-27T08:18:34.541Z,99109.94
2023-04-27T08:21:01.452Z,99111.53
2023-04-27T08:23:29.388Z,99108.94
2023-04-27T08:25:56.431Z,99103.41
2023-04-27T08:28:23.481Z,99105.94
2023-04-27T08:30:50.469Z,99102.25
2023-04-27T08:33:17.302Z,99099.63
2023-04-27T08:35:44.101Z,99094.97
2023-04-27T08:38:10.952Z,99094.81
2023-04-27T08:40:43.765Z,99089.47
2023-04-27T08:43:10.578Z,99083.41
2023-04-27T08:45:37.570Z,99083.16
2023-04-27T08:48:04.746Z,99080.25
2023-04-27T08:50:32.437Z,99073.13
2023-04-27T08:52:59.792Z,99071.44
2023-04-27T08:55:26.820Z,99067.03
2023-04-27T08:57:58.461Z,99070.59
2023-04-27T09:00:26.891Z,99066.94
2023-04-27T09:02:54.054Z,99074.88
2023-04-27T09:05:23.550Z,99071.53
2023-04-27T09:08:19.765Z,99062.81
2023-04-27T09:10:47.963Z,99072.28
2023-04-27T09:13:15.424Z,99077.84
2023-04-27T09:15:48.906Z,99070.38
2023-04-27T09:18:21.797Z,99069.06
2023-04-27T09:20:50.378Z,99073.94
2023-04-27T09:23:32.174Z,99077.53
2023-04-27T09:26:02.086Z,99073.31
2023-04-27T09:28:34.123Z,99080.56
2023-04-27T09:31:04.265Z,99084.59
2023-04-27T09:33:36.015Z,99080.44
2023-04-27T09:36:06.289Z,99075.25
2023-04-27T09:41:01.319Z,99075.25
2023-04-27T09:43:29.811Z,99075.25
2023-04-27T09:45:58.222Z,99077.78
2023-04-27T09:48:26.684Z,99073.09
2023-04-27T09:50:53.516Z,99053.38
2023-04-27T09:53:26.612Z,99060.13
2023-04-27T09:56:41.795Z,99058.88
2023-04-27T10:00:00.793Z,99053.50
2023-04-27T10:02:30.357Z,99052.91
2023-04-27T10:05:22.479Z,99050.19
2023-04-27T10:07:52.170Z,99052.13
2023-04-27T10:10:19.995Z,99045.66
2023-04-27T10:13:02.875Z,99049.56
2023-04-27T10:15:30.471Z,99052.75
2023-04-27T10:18:05.250Z,99044.19
2023-04-27T10:20:37.228Z,99042.63
2023-04-27T10:23:04.462Z,99055.00
2023-04-27T10:25:41.324Z,99047.25
2023-04-27T10:28:09.013Z,99050.41
2023-04-27T10:30:38.369Z,99057.00
2023-04-27T10:33:10.977Z,99052.97
2023-04-27T10:35:44.562Z,99054.06
2023-04-27T10:38:21.512Z,99049.91
2023-04-27T10:41:01.352Z,99042.41
2023-04-27T10:43:34.794Z,99046.28
2023-04-27T10:46:10.384Z,99034.72
2023-04-27T10:48:39.849Z,99031.78
2023-04-27T10:51:07.518Z,99027.78
2023-04-27T10:53:36.289Z,99032.53
2023-04-27T10:56:06.663Z,99025.72
2023-04-27T10:58:45.282Z,99013.25
2023-04-27T11:01:29.388Z,99020.19
2023-04-27T11:03:58.704Z,99022.91
2023-04-27T11:06:26.222Z,99013.88
2023-04-27T11:08:53.073Z,99018.31
2023-04-27T11:11:20.525Z,99017.41
2023-04-27T11:13:49.829Z,99013.66
2023-04-27T11:16:16.864Z,99015.22
2023-04-27T11:18:43.747Z,99006.06
2023-04-27T11:21:21.565Z,99013.66
2023-04-27T11:23:48.383Z,99019.47
2023-04-27T11:26:18.283Z,99013.19
2023-04-27T11:28:57.829Z,99005.13
2023-04-27T11:31:25.812Z,99010.91
2023-04-27T11:33:53.533Z,99008.41
2023-04-27T11:36:22.912Z,99003.41
2023-04-27T11:38:49.871Z,99007.59
2023-04-27T11:41:17.581Z,99005.59
2023-04-27T11:43:51.214Z,98989.91
2023-04-27T11:46:22.285Z,99008.47
2023-04-27T11:48:49.434Z,99007.22
2023-04-27T11:51:16.353Z,99005.78
2023-04-27T11:53:48.307Z,99012.03
2023-04-27T11:56:15.138Z,99015.03
2023-04-27T11:58:42.602Z,99005.22
2023-04-27T12:01:11.963Z,99012.75
2023-04-27T12:03:39.162Z,99000.84
2023-04-27T12:06:27.642Z,99010.88
2023-04-27T12:08:53.358Z,98999.59
2023-04-27T12:11:20.777Z,99003.59
2023-04-27T12:13:48.153Z,99003.19
2023-04-27T12:16:15.004Z,98985.25
2023-04-27T12:18:42.037Z,98989.75
2023-04-27T12:21:10.186Z,98969.72
2023-04-27T12:23:37.154Z,98981.59
2023-04-27T12:26:04.004Z,98980.38
2023-04-27T12:28:30.816Z,98981.25
2023-04-27T12:30:57.853Z,98981.25
2023-04-27T12:33:24.920Z,98982.81
2023-04-27T12:35:52.067Z,98972.03
2023-04-27T12:38:18.962Z,98978.34
2023-04-27T12:40:46.085Z,98986.16
2023-04-27T12:43:12.938Z,98977.06
2023-04-27T12:45:39.907Z,98978.28
2023-04-27T12:48:07.468Z,98975.78
2023-04-27T12:50:37.898Z,98971.00
2023-04-27T12:53:04.698Z,98969.66
2023-04-27T12:55:34.099Z,98967.44
2023-04-27T12:58:02.724Z,98964.22
2023-04-27T13:00:29.937Z,98962.09
2023-04-27T13:02:58.387Z,98961.91
2023-04-27T13:05:26.345Z,98952.41
2023-04-27T13:07:53.274Z,98941.59
2023-04-27T13:10:20.117Z,98954.84
2023-04-27T13:12:46.996Z,98954.94
2023-04-27T13:15:13.900Z,98944.81
2023-04-27T13:17:43.129Z,98940.75
2023-04-27T13:20:11.646Z,98943.25
2023-04-27T13:22:40.608Z,98950.34
2023-04-27T13:25:09.371Z,98941.09
2023-04-27T13:27:36.541Z,98940.06
2023-04-27T13:30:05.077Z,98937.56
2023-04-27T13:32:31.946Z,98938.75
2023-04-27T13:34:59.517Z,98949.03
2023-04-27T13:37:27.079Z,98939.22
2023-04-27T13:39:53.942Z,98946.88
2023-04-27T13:42:21.492Z,98938.31
2023-04-27T13:44:48.295Z,98939.88
2023-04-27T13:47:15.118Z,98931.94
2023-04-27T13:49:41.971Z,98937.94
2023-04-27T13:52:09.607Z,98926.06
2023-04-27T13:54:36.486Z,98923.06
2023-04-27T13:57:04.039Z,98919.44
2023-04-27T13:59:30.926Z,98917.38
2023-04-27T14:01:57.745Z,98915.31
2023-04-27T14:04:24.802Z,98915.81
2023-04-27T14:06:51.742Z,98914.16
2023-04-27T14:09:18.797Z,98916.50
2023-04-27T14:11:55.751Z,98912.91
2023-04-27T14:14:24.079Z,98912.34
2023-04-27T14:16:51.390Z,98910.03
2023-04-27T14:19:20.273Z,98907.19
2023-04-27T14:21:48.138Z,98915.81
2023-04-27T14:24:15.106Z,98913.31
2023-04-27T14:26:43.997Z,98911.53
2023-04-27T14:29:11.526Z,98912.81
2023-04-27T14:31:39.309Z,98903.41
2023-04-27T14:34:07.368Z,98904.63
2023-04-27T14:36:34.522Z,98922.13
2023-04-27T14:39:01.356Z,98917.50
2023-04-27T14:41:28.530Z,98903.94
2023-04-27T14:43:55.945Z,98910.16
2023-04-27T14:46:22.852Z,98912.25
2023-04-27T14:48:49.921Z,98920.19
2023-04-27T14:51:17.096Z,98918.31
2023-04-27T14:53:44.243Z,98918.31
2023-04-27T14:56:11.787Z,98916.78
2023-04-27T14:58:38.914Z,98915.66
2023-04-27T15:01:07.732Z,98910.06
2023-04-27T15:03:35.053Z,98917.97
2023-04-27T15:06:02.791Z,98911.09
2023-04-27T15:08:31.410Z,98914.59
2023-04-27T15:11:00.495Z,98912.03
2023-04-27T15:13:28.047Z,98909.03
2023-04-27T15:15:59.516Z,98918.78
2023-04-27T15:18:26.708Z,98916.16
2023-04-27T15:20:58.396Z,98913.53
2023-04-27T15:23:26.736Z,98922.94
2023-04-27T15:25:58.408Z,98918.78
2023-04-27T15:28:25.361Z,98917.19
2023-04-27T15:30:52.460Z,98910.94
2023-04-27T15:33:19.534Z,98903.50
2023-04-27T15:35:46.456Z,98889.34
2023-04-27T15:38:14.950Z,98900.09
2023-04-27T15:40:41.853Z,98900.78
2023-04-27T15:43:08.671Z,98899.06
2023-04-27T15:45:35.489Z,98898.00
2023-04-27T15:48:02.535Z,98894.66
2023-04-27T15:50:29.441Z,98895.50
2023-04-27T15:52:56.369Z,98901.88
2023-04-27T15:55:23.340Z,98892.38
2023-04-27T15:57:50.575Z,98888.22
2023-04-27T16:00:18.981Z,98892.84
2023-04-27T16:02:46.789Z,98891.16
2023-04-27T16:05:14.181Z,98880.22
2023-04-27T16:07:43.900Z,98881.38
2023-04-27T16:10:11.691Z,98874.03
2023-04-27T16:12:38.865Z,98866.09
2023-04-27T16:15:10.082Z,98855.63
2023-04-27T16:17:38.074Z,98859.19
2023-04-27T16:20:06.757Z,98859.78
2023-04-27T16:22:34.580Z,98860.75
2023-04-27T16:25:02.067Z,98858.75
2023-04-27T16:27:28.934Z,98857.56
2023-04-27T16:29:56.447Z,98853.88
2023-04-27T16:32:23.577Z,98844.66
2023-04-27T16:34:50.668Z,98850.97
2023-04-27T16:37:17.599Z,98848.72
2023-04-27T16:39:45.172Z,98845.19
2023-04-27T16:42:16.195Z,98844.44
2023-04-27T16:44:43.007Z,98850.66
2023-04-27T16:47:09.800Z,98846.34
2023-04-27T16:49:37.704Z,98843.72
2023-04-27T16:52:05.199Z,98855.16
2023-04-27T16:54:32.103Z,98853.47
2023-04-27T16:56:58.902Z,98853.25
2023-04-27T16:59:25.688Z,98848.03
2023-04-27T17:01:52.585Z,98848.72
2023-04-27T17:04:19.697Z,98844.44
2023-04-27T17:06:48.299Z,98843.59
2023-04-27T17:09:15.516Z,98844.44
2023-04-27T17:11:42.655Z,98844.69
2023-04-27T17:14:09.477Z,98843.59
2023-04-27T17:16:36.301Z,98847.06
2023-04-27T17:19:03.760Z,98849.81
2023-04-27T17:21:31.672Z,98841.13
2023-04-27T17:23:58.475Z,98841.13
2023-04-27T17:26:25.367Z,98846.22
2023-04-27T17:28:52.292Z,98848.16
2023-04-27T17:31:19.237Z,98848.47
2023-04-27T17:33:46.169Z,98848.72
2023-04-27T17:36:13.282Z,98851.09
2023-04-27T17:38:40.734Z,98854.63
2023-04-27T17:41:07.722Z,98855.81
2023-04-27T17:43:34.537Z,98850.00
2023-04-27T17:46:01.320Z,98861.63
2023-04-27T17:48:28.178Z,98858.88
2023-04-27T17:50:55.009Z,98861.63
2023-04-27T17:53:21.801Z,98848.78
2023-04-27T17:55:48.681Z,98851.03
2023-04-27T17:58:17.028Z,98848.13
2023-04-27T18:00:44.523Z,98850.00
2023-04-27T18:03:11.954Z,98854.03
2023-04-27T18:05:38.975Z,98846.75
2023-04-27T18:08:06.046Z,98847.09
2023-04-27T18:10:32.951Z,98853.38
2023-04-27T18:13:00.097Z,98846.78
2023-04-27T18:15:26.936Z,98812.56
2023-04-27T18:17:53.847Z,98839.94
2023-04-27T18:20:23.271Z,98851.44
2023-04-27T18:22:50.542Z,98862.09
2023-04-27T18:25:17.428Z,98863.16
2023-04-27T18:27:45.153Z,98876.34
2023-04-27T18:30:12.258Z,98878.00
2023-04-27T18:32:39.242Z,98877.59
2023-04-27T18:35:06.688Z,98872.91
2023-04-27T18:37:33.687Z,98882.34
2023-04-27T18:40:00.965Z,98877.13
2023-04-27T18:42:27.826Z,98877.22
2023-04-27T18:44:55.216Z,98884.16
2023-04-27T18:47:22.117Z,98870.47
2023-04-27T18:49:48.972Z,98878.94
2023-04-27T18:52:15.923Z,98877.47
2023-04-27T18:54:42.954Z,98840.00
2023-04-27T18:57:09.875Z,98874.56
2023-04-27T18:59:39.228Z,98870.59
2023-04-27T19:02:07.566Z,98875.59
2023-04-27T19:04:35.333Z,98872.28
2023-04-27T19:07:02.492Z,98877.91
2023-04-27T19:09:29.413Z,98879.88
2023-04-27T19:12:02.433Z,98879.81
2023-04-27T19:14:31.491Z,98891.78
2023-04-27T19:16:58.411Z,98888.97
2023-04-27T19:19:26.489Z,98898.91
2023-04-27T19:21:53.736Z,98897.19
2023-04-27T19:24:20.798Z,98889.47
2023-04-27T19:26:48.324Z,98902.75
2023-04-27T19:29:15.800Z,98892.47
2023-04-27T19:31:43.167Z,98899.53
2023-04-27T19:34:10.020Z,98903.31
2023-04-27T19:36:36.835Z,98907.06
2023-04-27T19:39:03.850Z,98904.34
2023-04-27T19:41:30.880Z,98900.47
2023-04-27T19:43:57.679Z,98896.41
2023-04-27T19:46:24.888Z,98896.19
2023-04-27T19:48:53.544Z,98886.34
2023-04-27T19:51:20.362Z,98877.53
2023-04-27T19:53:47.142Z,98886.81
2023-04-27T19:56:13.996Z,98882.25
2023-04-27T19:58:40.882Z,98890.81
2023-04-27T20:01:07.697Z,98886.94
2023-04-27T20:03:35.726Z,98880.66
2023-04-27T20:06:03.027Z,98888.91
2023-04-27T20:08:30.506Z,98883.25
2023-04-27T20:10:57.404Z,98884.59
2023-04-27T20:13:24.211Z,98880.94
2023-04-27T20:15:52.144Z,98880.41
2023-04-27T20:18:19.217Z,98880.13
2023-04-27T20:20:45.995Z,98873.91
2023-04-27T20:23:12.846Z,98872.97
2023-04-27T20:25:39.628Z,98873.91
2023-04-27T20:28:06.436Z,98877.53
2023-04-27T20:30:33.343Z,98877.75
2023-04-27T20:33:01.330Z,98886.41
2023-04-27T20:35:28.186Z,98883.97
2023-04-27T20:37:55.011Z,98878.97
2023-04-27T20:40:21.814Z,98880.19
2023-04-27T20:42:49.400Z,98881.03
2023-04-27T20:45:17.405Z,98871.66
2023-04-27T20:47:44.273Z,98864.13
2023-04-27T20:50:11.374Z,98864.31
2023-04-27T20:52:38.144Z,98861.38
2023-04-27T20:55:06.185Z,98871.59
2023-04-27T20:57:33.042Z,98868.25
2023-04-27T20:59:59.835Z,98868.34
2023-04-27T21:02:26.606Z,98864.91
2023-04-27T21:04:53.537Z,98870.22
2023-04-27T21:07:20.903Z,98867.91
2023-04-27T21:09:47.873Z,98862.16
2023-04-27T21:12:17.139Z,98852.66
2023-04-27T21:14:44.601Z,98853.81
2023-04-27T21:17:11.493Z,98846.09
2023-04-27T21:19:38.418Z,98842.66
2023-04-27T21:22:05.460Z,98836.22
2023-04-27T21:24:32.270Z,98839.56
2023-04-27T21:26:59.238Z,98843.94
2023-04-27T21:29:26.117Z,98836.59
2023-04-27T21:31:52.943Z,98837.44
2023-04-27T21:34:19.725Z,98841.00
2023-04-27T21:36:46.558Z,98839.50
2023-04-27T21:39:13.381Z,98841.34
2023-04-27T21:41:40.995Z,98841.56
2023-04-27T21:44:10.054Z,98837.47
2023-04-27T21:46:37.548Z,98831.53
2023-04-27T21:49:04.653Z,98831.72
2023-04-27T21:51:34.917Z,98829.31
2023-04-27T21:54:02.173Z,98829.41
2023-04-27T21:56:29.175Z,98825.16
2023-04-27T21:58:56.014Z,98819.38
2023-04-27T22:01:23.555Z,98824.50
2023-04-27T22:03:50.721Z,98822.91
2023-04-27T22:06:17.796Z,98808.34
2023-04-27T22:08:44.818Z,98812.69
2023-04-27T22:11:11.932Z,98821.41
2023-04-27T22:13:38.751Z,98818.91
2023-04-27T22:16:05.738Z,98814.94
2023-04-27T22:18:32.611Z,98812.25
2023-04-27T22:20:59.469Z,98820.03
2023-04-27T22:23:26.358Z,98815.94
2023-04-27T22:25:53.155Z,98816.97
2023-04-27T22:28:19.949Z,98814.47
2023-04-27T22:30:46.978Z,98775.38
2023-04-27T22:33:13.945Z,98821.72
2023-04-27T22:35:41.244Z,98819.31
2023-04-27T22:38:09.158Z,98818.34
2023-04-27T22:40:36.427Z,98821.06
2023-04-27T22:43:03.710Z,98820.34
2023-04-27T22:45:30.565Z,98818.84
2023-04-27T22:47:57.555Z,98821.53
2023-04-27T22:50:24.699Z,98824.34
2023-04-27T22:52:52.849Z,98827.00
2023-04-27T22:55:19.760Z,98820.25
2023-04-27T22:57:46.892Z,98819.69
2023-04-27T23:00:14.147Z,98811.13
2023-04-27T23:02:41.757Z,98821.72
2023-04-27T23:05:10.544Z,98828.75
2023-04-27T23:07:37.478Z,98824.56
2023-04-27T23:10:05.830Z,98822.06
2023-04-27T23:12:33.214Z,98831.00
2023-04-27T23:15:00.183Z,98831.25
2023-04-27T23:17:30.588Z,98834.88
2023-04-27T23:20:02.599Z,98838.38
2023-04-27T23:22:30.054Z,98834.31
2023-04-27T23:24:56.844Z,98831.88
2023-04-27T23:27:24.750Z,98826.88
2023-04-27T23:29:51.877Z,98815.81
2023-04-27T23:32:18.716Z,98821.06
2023-04-27T23:34:45.494Z,98811.63
2023-04-27T23:37:12.279Z,98814.31
2023-04-27T23:39:39.098Z,98809.34
2023-04-27T23:42:06.027Z,98814.66
2023-04-27T23:44:32.831Z,98810.28
2023-04-27T23:46:59.746Z,98808.44
2023-04-27T23:49:26.545Z,98801.56
2023-04-27T23:51:53.492Z,98789.69
2023-04-27T23:54:20.320Z,98787.81
2023-04-27T23:56:47.207Z,98782.63
2023-04-27T23:59:15.040Z,98781.81
